Time;durP1;ratioP1;P1;durP2;ratioP2;P2;SDS_P1;SDS_P2;PMS_P1;PMS_P2;Temp;Humidity;BMP_temperature;BMP_pressure;BME280_temperature;BME280_humidity;BME280_pressure;Samples;Min_cycle;Max_cycle;Signal;HPM_P1;HPM_P2
2022/06/03 00:01:49;;;;;;;0.10;0.10;;;8.00;99.90;;;;;;5026800;28;20053;-88
2022/06/03 00:04:36;;;;;;;0.45;0.45;;;7.90;99.90;;;;;;5020771;28;20124;-88
2022/06/03 00:07:34;;;;;;;0.15;0.15;;;7.90;99.90;;;;;;5016213;28;20041;-88
2022/06/03 00:10:16;;;;;;;0.00;0.00;;;7.80;99.90;;;;;;4964518;28;20046;-82
2022/06/03 00:13:06;;;;;;;0.13;0.13;;;7.90;99.90;;;;;;5017439;28;20120;-82
2022/06/03 00:15:32;;;;;;;0.10;0.10;;;8.00;99.90;;;;;;5003484;28;20037;-82
2022/06/03 00:18:12;;;;;;;0.00;0.00;;;8.00;99.90;;;;;;5017688;28;20063;-82
2022/06/03 00:21:00;;;;;;;0.10;0.10;;;7.80;99.90;;;;;;5017047;28;20395;-82
2022/06/03 00:23:25;;;;;;;0.10;0.10;;;7.80;99.90;;;;;;5016515;28;20045;-82
2022/06/03 00:26:25;;;;;;;0.00;0.00;;;8.00;99.90;;;;;;5015362;28;20044;-82
2022/06/03 00:29:12;;;;;;;0.10;0.10;;;7.80;99.90;;;;;;5017302;28;20049;-82
2022/06/03 00:31:50;;;;;;;0.35;0.35;;;7.80;99.90;;;;;;5017678;28;20091;-82
2022/06/03 00:34:22;;;;;;;0.00;0.00;;;7.70;99.90;;;;;;5016962;28;20033;-82
2022/06/03 00:36:48;;;;;;;0.00;0.00;;;7.70;99.90;;;;;;5017299;28;20453;-82
2022/06/03 00:39:27;;;;;;;0.00;0.00;;;7.80;99.90;;;;;;5016997;28;20049;-82
2022/06/03 00:42:50;;;;;;;0.10;0.10;;;7.60;99.90;;;;;;5017312;28;20124;-82
2022/06/03 00:45:39;;;;;;;0.00;0.00;;;7.60;99.90;;;;;;5016757;28;20046;-82
2022/06/03 00:48:28;;;;;;;0.15;0.15;;;7.50;99.90;;;;;;5015453;28;20396;-82
2022/06/03 00:51:13;;;;;;;0.20;0.20;;;7.50;99.90;;;;;;5016812;28;20060;-82
2022/06/03 00:53:42;;;;;;;0.00;0.00;;;;;;;;;;5000672;28;20555;-82
2022/06/03 00:56:28;;;;;;;0.10;0.10;;;7.50;99.90;;;;;;5017220;28;20527;-82
2022/06/03 00:59:21;;;;;;;0.00;0.00;;;7.40;99.90;;;;;;5016657;28;20045;-82
2022/06/03 01:01:59;;;;;;;0.10;0.10;;;;;;;;;;4999477;28;20048;-82
2022/06/03 01:04:49;;;;;;;0.10;0.10;;;7.30;99.90;;;;;;5033033;22;20084;-88
2022/06/03 01:07:32;;;;;;;0.20;0.20;;;7.30;99.90;;;;;;4977044;28;20457;-88
2022/06/03 01:10:10;;;;;;;0.13;0.13;;;7.30;99.90;;;;;;4992530;28;20408;-88
2022/06/03 01:12:54;;;;;;;0.10;0.10;;;7.40;99.90;;;;;;4993295;28;20050;-87
2022/06/03 01:15:33;;;;;;;0.20;0.20;;;7.40;99.90;;;;;;5009636;28;20038;-88
2022/06/03 01:18:09;;;;;;;0.10;0.10;;;7.40;99.90;;;;;;4992815;28;20042;-83
2022/06/03 01:21:05;;;;;;;0.10;0.10;;;7.30;99.90;;;;;;4993453;28;20046;-83
2022/06/03 01:23:47;;;;;;;0.10;0.10;;;7.30;99.90;;;;;;4993606;28;20057;-83
2022/06/03 01:26:41;;;;;;;0.10;0.10;;;7.20;99.90;;;;;;4977501;28;20089;-83
2022/06/03 01:29:22;;;;;;;0.05;0.05;;;7.20;99.90;;;;;;4990686;28;20053;-83
2022/06/03 01:32:21;;;;;;;0.05;0.05;;;7.20;99.90;;;;;;4993108;28;20046;-83
2022/06/03 01:35:04;;;;;;;0.10;0.10;;;7.20;99.90;;;;;;4977641;28;20416;-83
2022/06/03 01:37:46;;;;;;;0.30;0.22;;;7.20;99.90;;;;;;4993787;28;20373;-83
2022/06/03 01:40:33;;;;;;;0.10;0.10;;;7.10;99.90;;;;;;4976396;28;20038;-83
2022/06/03 01:43:31;;;;;;;0.05;0.05;;;7.00;99.90;;;;;;4993290;28;20370;-83
2022/06/03 01:46:30;;;;;;;0.30;0.30;;;7.10;99.90;;;;;;4977068;28;20038;-83
2022/06/03 01:49:17;;;;;;;0.22;0.22;;;7.00;99.90;;;;;;4989732;28;20531;-82
2022/06/03 01:51:46;;;;;;;0.10;0.10;;;7.00;99.90;;;;;;4991342;28;20046;-82
2022/06/03 01:54:27;;;;;;;0.00;0.00;;;7.00;99.90;;;;;;4992961;28;20053;-82
2022/06/03 01:57:02;;;;;;;0.00;0.00;;;7.00;99.90;;;;;;4993348;28;20138;-82
2022/06/03 01:59:50;;;;;;;0.10;0.10;;;7.00;99.90;;;;;;4990337;28;20484;-82
2022/06/03 02:02:38;;;;;;;0.10;0.10;;;7.00;99.90;;;;;;4974026;28;20422;-82
2022/06/03 02:05:41;;;;;;;0.73;0.73;;;7.00;99.90;;;;;;5006736;28;20062;-83
2022/06/03 02:08:40;;;;;;;0.03;0.03;;;7.00;99.90;;;;;;5012676;28;20495;-82
2022/06/03 02:11:18;;;;;;;0.10;0.10;;;7.00;99.90;;;;;;5011726;28;20049;-82
2022/06/03 02:13:59;;;;;;;0.10;0.10;;;7.00;99.90;;;;;;4996443;28;20046;-82
2022/06/03 02:16:52;;;;;;;0.00;0.00;;;7.10;99.90;;;;;;5012754;28;20037;-82
2022/06/03 02:19:40;;;;;;;0.73;0.73;;;7.00;99.90;;;;;;4996475;28;20532;-82
2022/06/03 02:22:30;;;;;;;0.10;0.10;;;7.00;99.90;;;;;;5012195;28;20077;-82
2022/06/03 02:25:54;;;;;;;0.08;0.08;;;7.00;99.90;;;;;;4996388;28;20480;-82
2022/06/03 02:28:45;;;;;;;0.20;0.20;;;7.00;99.90;;;;;;4956361;28;20054;-82
2022/06/03 02:31:11;;;;;;;0.10;0.10;;;7.00;99.90;;;;;;4938833;28;20552;-82
2022/06/03 02:34:01;;;;;;;0.43;0.30;;;7.50;99.90;;;;;;4990711;28;20045;-82
2022/06/03 02:37:00;;;;;;;0.80;0.30;;;7.00;99.90;;;;;;4996393;28;20041;-82
2022/06/03 02:39:42;;;;;;;3.15;0.47;;;6.90;99.90;;;;;;5020255;28;20042;-87
2022/06/03 02:42:32;;;;;;;0.10;0.10;;;6.90;99.90;;;;;;5011123;28;20041;-88
2022/06/03 02:45:07;;;;;;;0.00;0.00;;;6.90;99.90;;;;;;4996182;28;20045;-88
2022/06/03 02:47:47;;;;;;;0.28;0.28;;;6.80;99.90;;;;;;5012206;28;20180;-87
2022/06/03 02:50:29;;;;;;;0.15;0.15;;;6.80;99.90;;;;;;5012179;28;20452;-87
2022/06/03 02:53:24;;;;;;;0.10;0.10;;;6.80;99.90;;;;;;5009846;28;20037;-87
2022/06/03 02:56:36;;;;;;;0.13;0.13;;;6.80;99.90;;;;;;4995961;28;20038;-81
2022/06/03 02:59:26;;;;;;;0.00;0.00;;;6.80;99.90;;;;;;5012303;28;20464;-81
2022/06/03 03:02:17;;;;;;;0.20;0.20;;;6.70;99.90;;;;;;5009860;28;20115;-81
2022/06/03 03:05:08;;;;;;;0.08;0.08;;;6.70;99.90;;;;;;5023033;28;20053;-81
2022/06/03 03:07:49;;;;;;;0.10;0.10;;;6.70;99.90;;;;;;5012453;28;20046;-81
2022/06/03 03:10:46;;;;;;;0.43;0.43;;;6.70;99.90;;;;;;5012312;28;20505;-81
2022/06/03 03:13:49;;;;;;;0.20;0.20;;;6.70;99.90;;;;;;5028060;28;20052;-82
2022/06/03 03:16:34;;;;;;;0.10;0.10;;;6.70;99.90;;;;;;5002367;28;20038;-82
2022/06/03 03:19:18;;;;;;;0.10;0.10;;;6.80;99.90;;;;;;4996023;28;20046;-82
2022/06/03 03:21:52;;;;;;;0.10;0.10;;;6.80;99.90;;;;;;5010646;28;20076;-82
2022/06/03 03:24:53;;;;;;;0.10;0.10;;;6.80;99.90;;;;;;5015376;28;20676;-82
2022/06/03 03:27:29;;;;;;;0.08;0.08;;;6.90;99.90;;;;;;4991581;28;20038;-82
2022/06/03 03:30:18;;;;;;;0.60;0.40;;;7.00;99.90;;;;;;5015595;28;20117;-82
2022/06/03 03:33:11;;;;;;;0.13;0.13;;;7.10;99.90;;;;;;4984345;28;20143;-82
2022/06/03 03:35:55;;;;;;;0.20;0.20;;;7.00;99.90;;;;;;5011704;28;20069;-82
2022/06/03 03:39:05;;;;;;;0.10;0.10;;;7.10;99.90;;;;;;4997011;28;20441;-82
2022/06/03 03:42:26;;;;;;;0.20;0.20;;;7.10;99.90;;;;;;4994233;28;20488;-82
2022/06/03 03:45:15;;;;;;;2.30;0.45;;;7.10;99.90;;;;;;4967972;28;20141;-82
2022/06/03 03:48:15;;;;;;;0.10;0.10;;;7.10;99.90;;;;;;5011913;28;20048;-81
2022/06/03 03:51:16;;;;;;;0.10;0.10;;;7.20;99.90;;;;;;5014476;28;20120;-82
2022/06/03 03:54:16;;;;;;;0.00;0.00;;;7.20;99.90;;;;;;5007878;28;20049;-82
2022/06/03 03:57:25;;;;;;;0.40;0.40;;;7.30;99.90;;;;;;4997121;28;20469;-81
2022/06/03 03:59:57;;;;;;;0.10;0.10;;;7.30;99.90;;;;;;4955038;28;20514;-82
2022/06/03 04:03:04;;;;;;;0.22;0.20;;;7.30;99.90;;;;;;5034297;28;20037;-81
2022/06/03 04:05:53;;;;;;;0.10;0.10;;;7.30;99.90;;;;;;4977710;28;20050;-82
2022/06/03 04:08:58;;;;;;;0.10;0.10;;;7.50;99.90;;;;;;4991644;28;20457;-82
2022/06/03 04:11:48;;;;;;;0.00;0.00;;;7.40;99.90;;;;;;4986919;28;20042;-82
2022/06/03 04:15:02;;;;;;;0.00;0.00;;;7.40;99.90;;;;;;4975374;28;20042;-81
2022/06/03 04:18:02;;;;;;;0.00;0.00;;;7.40;99.90;;;;;;4978755;28;20043;-82
2022/06/03 04:20:52;;;;;;;0.10;0.10;;;7.50;99.90;;;;;;4993828;28;20046;-83
2022/06/03 04:23:40;;;;;;;0.25;0.25;;;7.60;99.90;;;;;;4994260;28;20046;-82
2022/06/03 04:26:29;;;;;;;0.10;0.10;;;7.60;99.90;;;;;;4993432;28;20092;-82
2022/06/03 04:29:35;;;;;;;0.17;0.17;;;7.70;99.90;;;;;;4992380;28;20715;-82
2022/06/03 04:32:04;;;;;;;0.20;0.20;;;7.70;99.90;;;;;;4993819;28;20038;-82
2022/06/03 04:35:07;;;;;;;0.00;0.00;;;7.80;99.90;;;;;;4993709;28;20050;-82
2022/06/03 04:38:12;;;;;;;0.20;0.20;;;7.90;99.90;;;;;;4974675;28;20042;-87
2022/06/03 04:40:43;;;;;;;0.20;0.20;;;8.00;99.90;;;;;;4964784;28;20442;-87
2022/06/03 04:43:36;;;;;;;0.20;0.20;;;8.20;99.90;;;;;;4974642;28;20046;-88
2022/06/03 04:46:17;;;;;;;0.30;0.30;;;8.30;99.90;;;;;;4984268;28;20136;-87
2022/06/03 04:49:05;;;;;;;0.10;0.10;;;8.40;99.90;;;;;;4994056;28;20042;-88
2022/06/03 04:51:30;;;;;;;0.15;0.15;;;8.60;99.90;;;;;;4994692;28;20047;-88
2022/06/03 04:53:59;;;;;;;0.00;0.00;;;8.70;99.90;;;;;;4977762;28;20042;-83
2022/06/03 04:56:55;;;;;;;0.00;0.00;;;8.70;99.90;;;;;;4991637;28;20042;-82
2022/06/03 04:59:51;;;;;;;0.73;0.73;;;8.80;99.90;;;;;;5009506;28;20496;-82
2022/06/03 05:02:48;;;;;;;0.00;0.00;;;9.00;99.90;;;;;;4992831;28;20081;-82
2022/06/03 05:05:17;;;;;;;0.10;0.10;;;9.20;99.90;;;;;;5009279;28;20496;-82
2022/06/03 05:07:48;;;;;;;0.20;0.20;;;9.30;99.90;;;;;;5019020;28;20061;-82
2022/06/03 05:10:52;;;;;;;4.00;0.40;;;9.40;99.90;;;;;;5015816;28;20041;-88
2022/06/03 05:13:23;;;;;;;0.70;0.47;;;9.50;99.90;;;;;;5013331;28;20041;-88
2022/06/03 05:16:45;;;;;;;0.47;0.47;;;9.60;99.90;;;;;;5013395;28;20128;-88
2022/06/03 05:19:34;;;;;;;0.00;0.00;;;9.80;99.90;;;;;;5015969;28;20045;-88
2022/06/03 05:22:30;;;;;;;0.52;0.52;;;10.00;99.90;;;;;;4999891;28;20483;-88
2022/06/03 05:25:39;;;;;;;0.15;0.15;;;10.70;99.90;;;;;;4999869;28;20151;-89
2022/06/03 05:28:26;;;;;;;0.20;0.20;;;12.00;99.90;;;;;;5014384;28;20120;-89
2022/06/03 05:30:58;;;;;;;;;;;14.20;99.90;;;;;;5016637;28;20045;-89
2022/06/03 05:33:48;;;;;;;0.10;0.10;;;14.30;99.90;;;;;;4998361;28;19917;-87
2022/06/03 05:36:28;;;;;;;0.10;0.10;;;15.80;99.90;;;;;;5015898;28;20072;-87
2022/06/03 05:39:15;;;;;;;0.40;0.40;;;15.90;99.90;;;;;;5030497;28;20045;-88
2022/06/03 05:44:44;;;;;;;0.28;0.10;;;17.30;99.90;;;;;;5030308;28;20750;-83
2022/06/03 05:47:31;;;;;;;0.10;0.10;;;18.00;99.90;;;;;;5013622;28;20072;-83
2022/06/03 05:50:07;;;;;;;0.00;0.00;;;18.50;99.90;;;;;;5011003;28;20045;-83
2022/06/03 05:52:47;;;;;;;0.10;0.10;;;18.70;99.90;;;;;;4996735;28;20037;-83
2022/06/03 05:55:32;;;;;;;0.47;0.47;;;18.90;99.90;;;;;;5009543;28;20037;-81
2022/06/03 05:58:26;;;;;;;0.25;0.25;;;19.20;99.90;;;;;;5013124;28;20037;-81
2022/06/03 06:00:55;;;;;;;0.13;0.13;;;19.50;99.90;;;;;;4995807;28;20403;-80
2022/06/03 06:03:36;;;;;;;0.30;0.30;;;20.00;99.90;;;;;;5014343;28;20041;-80
2022/06/03 06:06:37;;;;;;;0.17;0.17;;;20.30;99.90;;;;;;5015998;28;20475;-80
2022/06/03 06:09:39;;;;;;;0.10;0.10;;;20.50;99.90;;;;;;4982306;28;20155;-80
2022/06/03 06:12:23;;;;;;;0.00;0.00;;;20.60;99.70;;;;;;5032414;28;20045;-80
2022/06/03 06:14:58;;;;;;;0.25;0.25;;;20.80;99.60;;;;;;5012915;28;20048;-81
2022/06/03 06:17:32;;;;;;;0.73;0.27;;;21.10;98.30;;;;;;5008128;28;20507;-87
2022/06/03 06:20:16;;;;;;;0.80;0.80;;;21.30;98.20;;;;;;5005727;28;20064;-87
2022/06/03 06:22:49;;;;;;;0.17;0.17;;;21.70;95.20;;;;;;4998864;28;20037;-89
2022/06/03 06:25:31;;;;;;;0.10;0.10;;;21.90;95.20;;;;;;4966122;28;20364;-89
2022/06/03 06:27:59;;;;;;;0.00;0.00;;;22.00;94.20;;;;;;5012859;28;20156;-88
2022/06/03 06:30:46;;;;;;;0.00;0.00;;;22.20;95.10;;;;;;5009316;28;20063;-87
2022/06/03 06:33:53;;;;;;;0.00;0.00;;;22.50;93.10;;;;;;5026099;28;20042;-82
2022/06/03 06:36:24;;;;;;;0.00;0.00;;;22.70;92.50;;;;;;5014167;28;20037;-83
2022/06/03 06:39:15;;;;;;;0.00;0.00;;;22.90;91.10;;;;;;5003986;28;20046;-83
2022/06/03 06:41:46;;;;;;;0.20;0.10;;;23.20;90.50;;;;;;4979356;28;20125;-83
2022/06/03 06:44:46;;;;;;;0.00;0.00;;;23.30;89.80;;;;;;4999847;28;20558;-82
2022/06/03 06:47:47;;;;;;;0.10;0.10;;;23.70;88.90;;;;;;5009203;28;20468;-82
2022/06/03 06:50:25;;;;;;;0.00;0.00;;;24.20;89.10;;;;;;4997612;28;20053;-82
2022/06/03 06:52:59;;;;;;;0.00;0.00;;;24.50;85.50;;;;;;5034180;28;20037;-83
2022/06/03 06:55:31;;;;;;;0.00;0.00;;;24.70;86.40;;;;;;4983861;28;20038;-83
2022/06/03 06:58:02;;;;;;;0.20;0.20;;;25.00;84.60;;;;;;5018911;28;20048;-83
2022/06/03 07:00:37;;;;;;;0.00;0.00;;;25.10;82.00;;;;;;4999513;28;20042;-83
2022/06/03 07:03:13;;;;;;;;;;;25.10;79.80;;;;;;5009254;28;20147;-83
2022/06/03 07:06:11;;;;;;;0.00;0.00;;;25.30;79.30;;;;;;5002544;28;20283;-86
2022/06/03 07:08:38;;;;;;;0.30;0.30;;;25.30;81.10;;;;;;5017060;28;20128;-85
2022/06/03 07:11:26;;;;;;;0.00;0.00;;;25.30;75.30;;;;;;5016973;28;20045;-87
2022/06/03 07:13:59;;;;;;;0.10;0.10;;;25.10;76.10;;;;;;5023687;28;20495;-87
2022/06/03 07:19:49;;;;;;;0.30;0.30;;;25.40;79.20;;;;;;5017685;28;20117;-87
2022/06/03 07:22:22;;;;;;;0.10;0.10;;;25.90;77.80;;;;;;5019612;28;20033;-85
2022/06/03 07:24:57;;;;;;;0.00;0.00;;;26.20;74.90;;;;;;5004371;28;20064;-85
2022/06/03 07:27:39;;;;;;;0.77;0.77;;;26.40;74.40;;;;;;5001852;28;20072;-85
2022/06/03 07:30:10;;;;;;;0.00;0.00;;;26.90;75.60;;;;;;4983016;28;20038;-85
2022/06/03 07:32:44;;;;;;;0.20;0.20;;;27.30;75.20;;;;;;4999630;28;20097;-85
2022/06/03 07:35:28;;;;;;;0.00;0.00;;;27.30;72.40;;;;;;5011979;28;20103;-85
2022/06/03 07:38:02;;;;;;;0.22;0.22;;;27.50;73.70;;;;;;5018468;28;20072;-85
2022/06/03 07:40:48;;;;;;;0.17;0.17;;;27.90;73.00;;;;;;5018737;28;20124;-88
2022/06/03 07:43:32;;;;;;;0.00;0.00;;;27.80;73.20;;;;;;5001726;28;20439;-92
2022/06/03 07:46:05;;;;;;;0.10;0.10;;;28.10;73.00;;;;;;5021611;28;20091;-90
2022/06/03 07:48:33;;;;;;;0.45;0.45;;;28.20;70.90;;;;;;5017755;28;20435;-91
2022/06/03 07:51:04;;;;;;;0.20;0.20;;;28.50;72.10;;;;;;5001755;28;20099;-90
2022/06/03 07:53:51;;;;;;;0.10;0.10;;;28.90;70.70;;;;;;5033976;28;20064;-89
2022/06/03 07:56:29;;;;;;;0.10;0.10;;;29.20;70.40;;;;;;5013022;28;20034;-85
2022/06/03 07:59:01;;;;;;;2.55;0.65;;;29.30;68.20;;;;;;5014595;28;20049;-85
2022/06/03 08:01:38;;;;;;;0.00;0.00;;;29.10;67.70;;;;;;5017812;28;20077;-86
2022/06/03 08:04:07;;;;;;;0.10;0.10;;;28.90;68.60;;;;;;5014166;28;20096;-86
2022/06/03 08:12:24;;;;;;;0.10;0.10;;;29.60;67.60;;;;;;5013839;28;20038;-84
2022/06/03 08:14:50;;;;;;;0.10;0.10;;;30.10;65.60;;;;;;5014572;28;20033;-84
2022/06/03 08:17:19;;;;;;;0.20;0.20;;;30.10;65.10;;;;;;4985874;28;20116;-83
2022/06/03 08:19:45;;;;;;;0.15;0.15;;;30.10;66.80;;;;;;5017061;28;20480;-83
2022/06/03 08:22:15;;;;;;;0.00;0.00;;;30.20;64.90;;;;;;5017134;28;20029;-83
2022/06/03 08:24:44;;;;;;;0.10;0.10;;;30.10;63.20;;;;;;5017246;28;20038;-83
2022/06/03 08:27:23;;;;;;;0.00;0.00;;;29.80;63.30;;;;;;4998956;28;20079;-83
2022/06/03 08:29:55;;;;;;;0.00;0.00;;;30.10;64.90;;;;;;5014188;28;20046;-81
2022/06/03 08:32:27;;;;;;;0.00;0.00;;;30.30;62.80;;;;;;5014492;28;20038;-83
2022/06/03 08:34:55;;;;;;;0.10;0.10;;;30.50;63.10;;;;;;5013994;28;20093;-83
2022/06/03 08:37:33;;;;;;;0.20;0.20;;;30.70;64.10;;;;;;5027121;28;20081;-83
2022/06/03 08:40:02;;;;;;;0.20;0.20;;;31.00;65.70;;;;;;5011078;28;20132;-82
2022/06/03 08:42:45;;;;;;;0.10;0.10;;;31.40;61.40;;;;;;5013323;28;20040;-82
2022/06/03 08:45:39;;;;;;;0.10;0.10;;;31.60;62.50;;;;;;4994848;28;20183;-83
2022/06/03 08:48:14;;;;;;;0.35;0.20;;;32.10;62.80;;;;;;4998543;28;20063;-84
2022/06/03 08:51:07;;;;;;;0.20;0.20;;;31.90;59.70;;;;;;5052198;22;20053;-86
2022/06/03 08:53:44;;;;;;;0.25;0.25;;;31.80;60.10;;;;;;5032883;28;20037;-83
2022/06/03 08:56:12;;;;;;;0.22;0.22;;;31.50;61.30;;;;;;5016956;28;20038;-84
2022/06/03 08:59:09;;;;;;;0.10;0.10;;;31.80;60.30;;;;;;5013122;28;20081;-84
2022/06/03 09:01:39;;;;;;;0.10;0.10;;;31.70;60.80;;;;;;5009228;28;20053;-86
2022/06/03 09:04:20;;;;;;;0.20;0.20;;;31.80;59.70;;;;;;5016138;28;20049;-82
2022/06/03 09:07:07;;;;;;;0.00;0.00;;;32.00;61.00;;;;;;5015846;28;20537;-81
2022/06/03 09:09:45;;;;;;;0.08;0.08;;;32.10;58.70;;;;;;5020672;28;20042;-81
2022/06/03 09:12:23;;;;;;;0.10;0.10;;;31.90;60.50;;;;;;5023667;28;20037;-81
2022/06/03 09:14:50;;;;;;;0.20;0.20;;;32.30;61.60;;;;;;5016725;28;20044;-81
2022/06/03 09:17:38;;;;;;;0.00;0.00;;;32.60;60.60;;;;;;5016362;28;20064;-81
2022/06/03 09:20:17;;;;;;;0.15;0.15;;;32.80;61.30;;;;;;5021348;28;20091;-82
2022/06/03 09:22:45;;;;;;;0.10;0.10;;;32.90;57.80;;;;;;5022461;28;20128;-82
2022/06/03 09:25:13;;;;;;;0.10;0.10;;;32.90;59.70;;;;;;5016555;28;20428;-83
2022/06/03 09:27:41;;;;;;;0.10;0.10;;;32.90;58.90;;;;;;5016153;28;20554;-82
2022/06/03 09:30:10;;;;;;;0.10;0.10;;;32.90;57.60;;;;;;5017699;28;20128;-82
2022/06/03 09:32:47;;;;;;;0.00;0.00;;;33.00;58.30;;;;;;5025360;28;20052;-83
2022/06/03 09:35:18;;;;;;;0.10;0.10;;;33.10;57.70;;;;;;5015938;28;20124;-82
2022/06/03 09:37:47;;;;;;;0.17;0.17;;;33.30;58.40;;;;;;5034175;28;20036;-82
2022/06/03 09:40:19;;;;;;;0.20;0.13;;;33.20;56.80;;;;;;5014606;28;20052;-84
2022/06/03 09:43:00;;;;;;;0.00;0.00;;;33.40;58.70;;;;;;5015557;28;20048;-84
2022/06/03 09:45:26;;;;;;;0.00;0.00;;;33.50;58.20;;;;;;5015763;28;20091;-84
2022/06/03 09:47:53;;;;;;;0.03;0.03;;;33.60;57.80;;;;;;4998755;28;20505;-83
2022/06/03 09:50:22;;;;;;;0.10;0.10;;;33.60;55.90;;;;;;4997522;28;20104;-84
2022/06/03 09:52:48;;;;;;;0.40;0.40;;;33.70;57.10;;;;;;5015182;28;20057;-83
2022/06/03 09:55:35;;;;;;;0.15;0.15;;;33.60;54.90;;;;;;5015780;28;20372;-82
2022/06/03 09:58:03;;;;;;;0.10;0.10;;;33.40;57.00;;;;;;4999284;28;20045;-82
2022/06/03 10:00:44;;;;;;;0.15;0.15;;;33.60;57.50;;;;;;5015585;28;20045;-82
2022/06/03 10:03:10;;;;;;;0.05;0.05;;;33.70;55.00;;;;;;4999487;28;20049;-82
2022/06/03 10:05:36;;;;;;;0.22;0.22;;;33.40;55.60;;;;;;5015192;28;20033;-82
2022/06/03 10:08:05;;;;;;;0.20;0.20;;;33.10;57.60;;;;;;4999438;28;20041;-82
2022/06/03 10:13:17;;;;;;;0.22;0.22;;;32.50;57.80;;;;;;5018619;28;20502;-85
2022/06/03 10:15:53;;;;;;;0.05;0.05;;;32.60;56.60;;;;;;5000584;28;20037;-85
2022/06/03 10:18:37;;;;;;;0.00;0.00;;;32.20;55.70;;;;;;4997171;28;20046;-85
2022/06/03 10:21:06;;;;;;;0.85;0.85;;;32.10;56.80;;;;;;5003403;28;20128;-85
2022/06/03 10:23:35;;;;;;;0.00;0.00;;;31.60;56.70;;;;;;5035449;28;20041;-86
2022/06/03 10:26:02;;;;;;;0.10;0.10;;;32.00;56.60;;;;;;5036138;28;20503;-82
2022/06/03 10:28:39;;;;;;;0.08;0.08;;;32.40;56.60;;;;;;5019740;28;20124;-82
2022/06/03 10:31:17;;;;;;;0.10;0.10;;;32.20;55.90;;;;;;5019735;28;20076;-82
2022/06/03 10:33:58;;;;;;;0.35;0.28;;;32.20;58.00;;;;;;5019490;28;20042;-82
2022/06/03 10:36:44;;;;;;;0.10;0.10;;;32.30;56.80;;;;;;5019692;28;20049;-82
2022/06/03 10:39:15;;;;;;;0.10;0.10;;;32.20;57.90;;;;;;5003544;28;20128;-82
2022/06/03 10:41:45;;;;;;;0.10;0.10;;;31.90;55.30;;;;;;5020585;28;20052;-82
2022/06/03 10:44:18;;;;;;;0.22;0.22;;;31.40;53.80;;;;;;5017567;28;20045;-82
2022/06/03 10:46:53;;;;;;;0.00;0.00;;;31.00;55.10;;;;;;5019719;28;20107;-82
2022/06/03 10:49:20;;;;;;;;;;;31.00;58.80;;;;;;5035946;28;20049;-82
2022/06/03 11:02:48;;;;;;;0.17;0.17;;;31.00;54.70;;;;;;5027502;28;20049;-84
2022/06/03 11:05:31;;;;;;;0.08;0.08;;;31.00;57.40;;;;;;5026889;28;20128;-83
2022/06/03 11:08:03;;;;;;;0.00;0.00;;;31.10;56.90;;;;;;5034738;28;20191;-84
2022/06/03 11:10:51;;;;;;;0.13;0.13;;;31.40;58.60;;;;;;5015299;28;20044;-84
2022/06/03 11:13:30;;;;;;;0.20;0.20;;;31.70;54.30;;;;;;5022139;28;20029;-82
2022/06/03 11:16:10;;;;;;;0.00;0.00;;;31.50;56.50;;;;;;5027937;28;20037;-83
2022/06/03 11:18:36;;;;;;;0.20;0.20;;;30.80;57.80;;;;;;5031075;28;20072;-83
2022/06/03 11:21:19;;;;;;;0.08;0.08;;;30.70;56.10;;;;;;5008843;28;20150;-84
2022/06/03 11:23:45;;;;;;;0.10;0.10;;;30.90;56.50;;;;;;5026510;28;20041;-83
2022/06/03 11:26:11;;;;;;;0.00;0.00;;;31.10;56.40;;;;;;5013358;28;20039;-82
2022/06/03 11:28:42;;;;;;;0.00;0.00;;;31.00;55.10;;;;;;5024567;28;20049;-83
2022/06/03 11:31:18;;;;;;;0.00;0.00;;;30.80;57.50;;;;;;5019504;28;20049;-84
2022/06/03 11:34:14;;;;;;;0.43;0.38;;;30.80;57.40;;;;;;5028140;28;20033;-85
2022/06/03 11:37:09;;;;;;;0.10;0.10;;;30.50;57.70;;;;;;5020770;28;20037;-85
2022/06/03 11:39:41;;;;;;;0.00;0.00;;;30.10;57.90;;;;;;4985623;28;20052;-86
2022/06/03 11:42:11;;;;;;;0.10;0.10;;;28.80;55.90;;;;;;5016902;28;20124;-85
2022/06/03 11:44:46;;;;;;;0.00;0.00;;;28.20;57.20;;;;;;5006854;28;20041;-84
2022/06/03 11:47:31;;;;;;;0.00;0.00;;;28.20;59.10;;;;;;5023237;28;20095;-84
2022/06/03 11:49:57;;;;;;;0.10;0.10;;;28.80;61.40;;;;;;5033915;28;20256;-82
2022/06/03 11:52:23;;;;;;;0.00;0.00;;;29.70;59.20;;;;;;5017674;28;20542;-82
2022/06/03 11:54:52;;;;;;;0.22;0.22;;;29.90;59.50;;;;;;5016690;28;20036;-83
2022/06/03 11:57:18;;;;;;;0.20;0.20;;;30.50;56.60;;;;;;5027958;28;20034;-83
2022/06/03 12:00:00;;;;;;;0.00;0.00;;;30.20;56.20;;;;;;5018468;28;20472;-83
2022/06/03 12:02:38;;;;;;;0.20;0.20;;;30.10;57.50;;;;;;5034813;28;20046;-84
2022/06/03 12:05:12;;;;;;;0.10;0.10;;;29.90;56.60;;;;;;5018094;28;20096;-83
2022/06/03 12:07:58;;;;;;;0.10;0.10;;;30.30;58.00;;;;;;5030082;28;20038;-82
2022/06/03 12:10:36;;;;;;;0.08;0.08;;;30.50;57.50;;;;;;5034146;28;20037;-82
2022/06/03 12:13:15;;;;;;;0.10;0.10;;;30.70;56.30;;;;;;5007712;28;20041;-82
2022/06/03 12:16:01;;;;;;;0.20;0.20;;;31.30;55.30;;;;;;5017062;28;20044;-82
2022/06/03 12:18:34;;;;;;;0.15;0.15;;;31.70;55.90;;;;;;4997661;28;20464;-82
2022/06/03 12:21:03;;;;;;;0.10;0.10;;;31.40;55.40;;;;;;4998296;28;20496;-82
2022/06/03 12:23:28;;;;;;;0.10;0.10;;;31.30;57.30;;;;;;5019265;28;20041;-82
2022/06/03 12:25:57;;;;;;;0.08;0.08;;;31.00;55.40;;;;;;5027935;28;20091;-82
2022/06/03 12:28:41;;;;;;;0.00;0.00;;;30.20;56.90;;;;;;5024477;28;20068;-83
2022/06/03 12:31:21;;;;;;;0.05;0.05;;;30.00;57.30;;;;;;5001578;28;20041;-82
2022/06/03 12:34:08;;;;;;;0.00;0.00;;;30.40;57.60;;;;;;5017389;28;20069;-82
2022/06/03 12:36:50;;;;;;;0.00;0.00;;;30.60;54.80;;;;;;5016388;28;20064;-83
2022/06/03 12:39:23;;;;;;;0.05;0.05;;;30.70;56.90;;;;;;5017431;28;20053;-83
2022/06/03 12:41:49;;;;;;;0.13;0.13;;;29.60;55.20;;;;;;4994436;28;20038;-83
2022/06/03 12:44:40;;;;;;;0.00;0.00;;;28.60;57.70;;;;;;5017011;28;20047;-84
2022/06/03 12:47:18;;;;;;;0.00;0.00;;;28.70;59.70;;;;;;4998810;28;20106;-83
2022/06/03 12:49:44;;;;;;;0.15;0.15;;;28.70;58.50;;;;;;5017372;28;20033;-83
2022/06/03 12:52:35;;;;;;;0.00;0.00;;;28.60;57.80;;;;;;5017836;28;20387;-84
2022/06/03 12:55:15;;;;;;;0.08;0.08;;;29.00;58.60;;;;;;5000532;28;20037;-83
2022/06/03 12:57:48;;;;;;;0.10;0.10;;;29.50;58.30;;;;;;5016656;28;20485;-83
2022/06/03 13:00:20;;;;;;;0.20;0.20;;;30.00;58.80;;;;;;5034015;28;20103;-83
2022/06/03 13:03:23;;;;;;;0.00;0.00;;;29.50;57.30;;;;;;5089937;28;20413;-83
2022/06/03 13:05:59;;;;;;;;;;;28.60;57.80;;;;;;5057156;28;20040;-83
2022/06/03 13:08:28;;;;;;;0.13;0.13;;;28.10;57.90;;;;;;5068992;28;20282;-84
2022/06/03 13:11:31;;;;;;;0.00;0.00;;;28.20;60.70;;;;;;5069097;28;20041;-82
2022/06/03 13:13:56;;;;;;;0.00;0.00;;;28.40;59.60;;;;;;5051028;28;20051;-84
2022/06/03 13:16:31;;;;;;;0.00;0.00;;;29.00;60.70;;;;;;5052557;28;20048;-82
2022/06/03 13:19:19;;;;;;;0.00;0.00;;;29.60;60.30;;;;;;5069445;28;20075;-83
2022/06/03 13:21:56;;;;;;;0.00;0.00;;;29.80;60.30;;;;;;5052497;28;20041;-82
2022/06/03 13:24:29;;;;;;;0.05;0.05;;;30.00;60.00;;;;;;5068818;28;20036;-83
2022/06/03 13:26:58;;;;;;;0.08;0.08;;;29.70;59.40;;;;;;5055090;28;20090;-83
2022/06/03 13:29:49;;;;;;;0.10;0.10;;;29.70;59.90;;;;;;5069707;28;20047;-83
2022/06/03 13:32:17;;;;;;;0.00;0.00;;;29.70;58.50;;;;;;5052386;28;20076;-82
2022/06/03 13:34:44;;;;;;;0.00;0.00;;;29.50;59.40;;;;;;5068615;28;20398;-83
2022/06/03 13:37:45;;;;;;;0.08;0.08;;;29.50;60.20;;;;;;5069309;28;20036;-83
2022/06/03 13:40:25;;;;;;;0.10;0.10;;;29.40;59.80;;;;;;5068859;28;20037;-82
2022/06/03 13:43:05;;;;;;;0.10;0.10;;;29.20;58.10;;;;;;5069087;28;20045;-83
2022/06/03 13:46:09;;;;;;;0.20;0.20;;;29.10;59.60;;;;;;5068081;28;20035;-81
2022/06/03 13:48:51;;;;;;;0.20;0.10;;;28.90;59.20;;;;;;5037486;28;20055;-82
2022/06/03 13:51:33;;;;;;;0.00;0.00;;;28.80;59.10;;;;;;5065862;28;20052;-81
2022/06/03 13:54:06;;;;;;;0.10;0.10;;;28.80;58.70;;;;;;5068942;28;20087;-82
2022/06/03 13:56:33;;;;;;;0.00;0.00;;;28.90;58.90;;;;;;5057121;28;20040;-81
2022/06/03 13:59:02;;;;;;;0.30;0.30;;;28.60;57.50;;;;;;5074819;28;20045;-82
2022/06/03 14:01:42;;;;;;;0.63;0.30;;;28.40;58.80;;;;;;5068158;28;20105;-81
2022/06/03 14:04:23;;;;;;;0.00;0.00;;;27.90;59.00;;;;;;5074148;28;20025;-83
2022/06/03 14:06:56;;;;;;;0.00;0.00;;;26.80;61.00;;;;;;5067565;28;20048;-83
2022/06/03 14:09:23;;;;;;;0.00;0.00;;;26.20;62.40;;;;;;5050830;28;20075;-84
2022/06/03 14:12:08;;;;;;;1.20;0.47;;;25.80;61.90;;;;;;5050911;28;20196;-83
2022/06/03 14:14:56;;;;;;;0.10;0.10;;;25.40;63.80;;;;;;5035647;28;20090;-83
2022/06/03 14:17:48;;;;;;;0.00;0.00;;;25.10;64.20;;;;;;5053463;28;20119;-83
2022/06/03 14:20:22;;;;;;;0.10;0.10;;;24.80;65.30;;;;;;5056835;28;20033;-82
2022/06/03 14:22:48;;;;;;;0.00;0.00;;;;;;;;;;5088167;28;20118;-82
2022/06/03 14:25:41;;;;;;;0.00;0.00;;;24.30;65.80;;;;;;5037564;28;20482;-81
2022/06/03 14:28:36;;;;;;;0.10;0.10;;;24.20;67.20;;;;;;5037074;28;20037;-81
2022/06/03 14:31:14;;;;;;;0.05;0.05;;;24.10;66.50;;;;;;5083161;28;20049;-81
2022/06/03 14:33:43;;;;;;;0.10;0.10;;;24.00;66.60;;;;;;5052040;28;20044;-81